« Back
NWS Peachtree City, Ga » Text Product » MCN Terminal Aerodrome Forecast


Printer-friendly Version
Current Version              Previous Versions:   1  2  3  4  5  6  7  8  9  

Terminal Aerodrome Forecast

820
FTUS42 KFFC 040524
TAFMCN
TAF
KMCN 040524Z 0406/0506 30006KT P6SM OVC050
     FM041000 29006KT P6SM SCT050 SCT100
     FM041400 30010G18KT P6SM SKC
     FM042000 30012G20KT P6SM SKC
     FM050000 29006KT P6SM SKC=

USA.gov is the U.S. government's official web portal to all federal, state and local government web resources and services.